Time;durP1;ratioP1;P1;durP2;ratioP2;P2;SDS_P1;SDS_P2;PMS_P1;PMS_P2;Temp;Humidity;BMP_temperature;BMP_pressure;BME280_temperature;BME280_humidity;BME280_pressure;Samples;Min_cycle;Max_cycle;Signal;HPM_P1;HPM_P2
2023/08/08 00:01:16;;;;;;;2.90;2.27;;;12.30;99.90;;;;;;6307582;22;20179;-44
2023/08/08 00:03:41;;;;;;;2.23;2.03;;;12.30;99.90;;;;;;6308967;22;20171;-45
2023/08/08 00:06:07;;;;;;;2.90;2.27;;;12.30;99.90;;;;;;6307631;22;20150;-45
2023/08/08 00:08:33;;;;;;;2.80;2.50;;;12.30;99.90;;;;;;6307560;22;20152;-45
2023/08/08 00:10:58;;;;;;;3.20;2.10;;;12.20;99.90;;;;;;6306220;22;20218;-45
2023/08/08 00:13:24;;;;;;;3.50;2.47;;;12.20;1.00;;;;;;6307057;22;20265;-45
2023/08/08 00:15:50;;;;;;;3.73;2.33;;;12.20;1.00;;;;;;6305072;22;20216;-45
2023/08/08 00:18:15;;;;;;;4.90;2.43;;;12.20;1.00;;;;;;6277030;22;20494;-44
2023/08/08 00:20:41;;;;;;;3.07;2.27;;;12.20;1.00;;;;;;6306565;22;20183;-45
2023/08/08 00:23:06;;;;;;;2.70;2.00;;;12.20;1.00;;;;;;6308107;22;20254;-45
2023/08/08 00:25:32;;;;;;;2.40;2.20;;;12.20;1.00;;;;;;6308757;22;20155;-45
2023/08/08 00:27:58;;;;;;;2.50;2.07;;;12.20;1.00;;;;;;6308407;22;20192;-44
2023/08/08 00:30:23;;;;;;;2.20;1.70;;;12.20;1.00;;;;;;6308714;22;20168;-45
2023/08/08 00:32:49;;;;;;;2.53;2.33;;;12.20;1.00;;;;;;6310519;22;20550;-44
2023/08/08 00:35:15;;;;;;;5.73;3.50;;;12.20;1.00;;;;;;6309482;22;20148;-44
2023/08/08 00:37:40;;;;;;;2.40;2.20;;;12.30;1.00;;;;;;6310649;22;20174;-44
2023/08/08 00:40:07;;;;;;;2.60;2.40;;;12.30;1.00;;;;;;6309031;22;20758;-45
2023/08/08 00:42:32;;;;;;;3.80;2.40;;;12.40;1.00;;;;;;6308956;22;20838;-45
2023/08/08 00:45:03;;;;;;;2.50;2.10;;;12.40;1.00;;;;;;6309502;22;20382;-45
2023/08/08 00:47:31;;;;;;;2.70;2.33;;;12.40;1.00;;;;;;6308916;22;20152;-44
2023/08/08 00:49:57;;;;;;;3.27;2.67;;;12.50;1.00;;;;;;6309119;22;20393;-45
2023/08/08 00:52:22;;;;;;;2.20;2.00;;;12.40;1.00;;;;;;6309205;22;20378;-44
2023/08/08 00:54:48;;;;;;;4.30;2.33;;;12.50;1.00;;;;;;6309073;22;20139;-44
2023/08/08 00:57:14;;;;;;;2.63;2.13;;;12.50;1.00;;;;;;6307427;22;20139;-45
2023/08/08 00:59:39;;;;;;;2.27;1.80;;;12.50;1.00;;;;;;6309256;22;20528;-44
2023/08/08 01:02:05;;;;;;;3.17;2.57;;;12.60;1.00;;;;;;6283139;22;20151;-45
2023/08/08 01:04:31;;;;;;;3.60;2.40;;;12.60;99.90;;;;;;6309343;22;20159;-45
2023/08/08 01:07:07;;;;;;;2.87;2.47;;;12.60;1.00;;;;;;6308995;22;20366;-44
2023/08/08 01:09:44;;;;;;;2.43;2.17;;;12.70;99.90;;;;;;6309636;22;20135;-45
2023/08/08 01:12:11;;;;;;;2.10;1.90;;;12.70;99.90;;;;;;6282370;22;20451;-45
2023/08/08 01:14:37;;;;;;;3.10;2.03;;;12.70;99.90;;;;;;6283030;22;20386;-45
2023/08/08 01:17:03;;;;;;;2.43;1.60;;;12.80;99.90;;;;;;6308720;22;20385;-45
2023/08/08 01:19:30;;;;;;;2.63;2.10;;;12.80;99.90;;;;;;6309100;22;20296;-45
2023/08/08 01:22:03;;;;;;;2.90;2.23;;;12.80;99.90;;;;;;6308576;22;20359;-45
2023/08/08 01:24:30;;;;;;;2.50;2.30;;;12.80;99.90;;;;;;6282374;22;20369;-45
2023/08/08 01:27:05;;;;;;;4.73;2.53;;;12.80;99.90;;;;;;6281000;22;20465;-45
2023/08/08 01:29:31;;;;;;;4.07;2.47;;;12.80;99.90;;;;;;6308271;22;20408;-45
2023/08/08 01:31:57;;;;;;;3.07;2.40;;;12.80;99.90;;;;;;6308689;22;20426;-45
2023/08/08 01:34:22;;;;;;;2.87;1.87;;;12.80;99.90;;;;;;6307121;22;20213;-45
2023/08/08 01:36:50;;;;;;;2.47;2.27;;;12.80;99.90;;;;;;6308378;22;20132;-45
2023/08/08 01:39:20;;;;;;;2.73;1.83;;;12.80;99.90;;;;;;6308234;22;20465;-45
2023/08/08 01:41:47;;;;;;;3.27;2.17;;;12.80;99.90;;;;;;6281762;22;20382;-45
2023/08/08 01:44:13;;;;;;;3.57;2.10;;;12.80;99.90;;;;;;6281687;22;20485;-45
2023/08/08 01:46:39;;;;;;;4.83;1.90;;;12.90;99.90;;;;;;6308327;22;20448;-45
2023/08/08 01:49:05;;;;;;;2.60;2.27;;;12.80;99.90;;;;;;6281906;22;20378;-45
2023/08/08 01:51:31;;;;;;;2.67;2.20;;;12.80;99.90;;;;;;6308967;22;20462;-45
2023/08/08 01:53:56;;;;;;;3.07;2.37;;;12.70;99.90;;;;;;6308796;22;20354;-45
2023/08/08 01:56:22;;;;;;;2.33;2.13;;;12.80;99.90;;;;;;6309220;22;20148;-44
2023/08/08 01:58:47;;;;;;;3.17;2.10;;;12.80;99.90;;;;;;6309261;22;20152;-45
2023/08/08 02:01:13;;;;;;;3.17;2.40;;;12.80;99.90;;;;;;6308430;22;20434;-45
2023/08/08 02:03:48;;;;;;;3.70;2.10;;;12.70;99.90;;;;;;6308541;22;20131;-45
2023/08/08 02:06:13;;;;;;;2.67;2.20;;;12.70;99.90;;;;;;6308430;22;20180;-45
2023/08/08 02:08:39;;;;;;;2.27;2.07;;;12.70;99.90;;;;;;6308947;22;20441;-45
2023/08/08 02:11:04;;;;;;;3.00;1.93;;;12.70;99.90;;;;;;6308272;22;20184;-45
2023/08/08 02:13:30;;;;;;;2.93;2.30;;;12.70;99.90;;;;;;6308702;22;20163;-45
2023/08/08 02:15:56;;;;;;;3.60;2.10;;;12.70;1.00;;;;;;6308851;22;20155;-45
2023/08/08 02:18:22;;;;;;;3.60;2.53;;;12.60;1.00;;;;;;6309209;22;20167;-45
2023/08/08 02:20:47;;;;;;;3.17;2.67;;;12.60;1.00;;;;;;6281384;22;20156;-45
2023/08/08 02:23:13;;;;;;;2.33;2.00;;;12.60;1.00;;;;;;6308798;22;20151;-45
2023/08/08 02:25:38;;;;;;;2.73;2.30;;;12.60;1.00;;;;;;6308069;22;20460;-45
2023/08/08 02:28:04;;;;;;;2.43;2.23;;;12.60;1.00;;;;;;6308470;22;20199;-45
2023/08/08 02:30:30;;;;;;;2.50;2.00;;;12.60;1.00;;;;;;6308717;22;20218;-45
2023/08/08 02:32:56;;;;;;;2.97;2.37;;;12.60;1.00;;;;;;6306747;22;20753;-44
2023/08/08 02:35:21;;;;;;;3.00;2.60;;;12.60;1.00;;;;;;6306251;22;20428;-45
2023/08/08 02:37:47;;;;;;;2.60;2.13;;;12.60;1.00;;;;;;6306706;22;20538;-45
2023/08/08 02:40:13;;;;;;;3.37;2.23;;;12.60;1.00;;;;;;6305812;22;20166;-45
2023/08/08 02:42:38;;;;;;;2.87;2.20;;;12.60;1.00;;;;;;6306461;22;20159;-44
2023/08/08 02:45:04;;;;;;;3.50;2.37;;;12.60;1.00;;;;;;6306932;22;20152;-45
2023/08/08 02:47:30;;;;;;;2.40;1.80;;;12.60;1.00;;;;;;6307939;22;20159;-45
2023/08/08 02:49:56;;;;;;;2.40;2.10;;;12.50;1.00;;;;;;6308428;22;20817;-45
2023/08/08 02:52:21;;;;;;;3.13;2.57;;;12.50;1.00;;;;;;6308922;22;20150;-45
2023/08/08 02:54:47;;;;;;;3.43;2.50;;;12.50;1.00;;;;;;6306221;22;20570;-45
2023/08/08 02:57:13;;;;;;;5.30;2.73;;;12.60;1.00;;;;;;6307213;22;20159;-45
2023/08/08 02:59:42;;;;;;;2.07;1.80;;;12.50;1.00;;;;;;6281192;22;20382;-45
2023/08/08 03:02:07;;;;;;;5.00;2.33;;;12.60;1.00;;;;;;6305929;22;20790;-45
2023/08/08 03:04:33;;;;;;;2.50;2.13;;;12.60;1.00;;;;;;6306703;22;20508;-45
2023/08/08 03:07:01;;;;;;;3.07;1.90;;;12.60;1.00;;;;;;6306199;22;20152;-45
2023/08/08 03:09:26;;;;;;;2.30;1.97;;;12.50;1.00;;;;;;6307949;22;20171;-45
2023/08/08 03:11:52;;;;;;;5.83;2.40;;;12.40;1.00;;;;;;6306396;22;20829;-44
2023/08/08 03:14:18;;;;;;;3.70;2.50;;;12.40;1.00;;;;;;6304109;22;20148;-44
2023/08/08 03:16:44;;;;;;;2.80;2.30;;;12.30;1.00;;;;;;6278587;22;20128;-45
2023/08/08 03:19:10;;;;;;;2.27;2.00;;;12.30;1.00;;;;;;6304007;22;20131;-45
2023/08/08 03:21:36;;;;;;;2.70;2.17;;;12.20;1.00;;;;;;6305558;22;20382;-45
2023/08/08 03:24:01;;;;;;;2.43;2.23;;;12.20;1.00;;;;;;6304096;22;20428;-44
2023/08/08 03:26:27;;;;;;;3.17;2.33;;;12.20;1.00;;;;;;6304571;22;20230;-45
2023/08/08 03:28:53;;;;;;;2.53;2.23;;;12.20;1.00;;;;;;6280204;22;20214;-45
2023/08/08 03:31:20;;;;;;;2.70;2.50;;;12.10;1.00;;;;;;6308874;22;20168;-44
2023/08/08 03:33:45;;;;;;;2.63;2.33;;;12.10;1.00;;;;;;6307397;22;20384;-45
2023/08/08 03:36:11;;;;;;;3.33;2.30;;;12.10;1.00;;;;;;6305597;22;20378;-44
2023/08/08 03:38:37;;;;;;;2.70;2.40;;;12.10;1.00;;;;;;6305662;22;20148;-45
2023/08/08 03:41:04;;;;;;;2.93;2.20;;;12.10;1.00;;;;;;6306319;22;20163;-45
2023/08/08 03:43:29;;;;;;;2.60;2.40;;;12.10;1.00;;;;;;6307297;22;20724;-45
2023/08/08 03:45:55;;;;;;;2.80;2.30;;;12.20;1.00;;;;;;6305578;22;20477;-45
2023/08/08 03:48:21;;;;;;;3.30;2.20;;;12.20;1.00;;;;;;6306124;22;20266;-44
2023/08/08 03:50:46;;;;;;;2.60;1.93;;;12.20;1.00;;;;;;6307544;22;20258;-45
2023/08/08 03:53:12;;;;;;;5.60;3.00;;;12.30;1.00;;;;;;6308626;22;20214;-45
2023/08/08 03:55:38;;;;;;;4.23;2.60;;;12.30;1.00;;;;;;6308143;22;20140;-45
2023/08/08 03:58:05;;;;;;;2.37;2.17;;;12.40;1.00;;;;;;6310415;22;20382;-45
2023/08/08 04:00:31;;;;;;;3.53;2.03;;;12.40;1.00;;;;;;6307717;22;20244;-45
2023/08/08 04:02:56;;;;;;;4.07;2.20;;;12.50;1.00;;;;;;6309484;22;20396;-45
2023/08/08 04:05:22;;;;;;;3.47;2.27;;;12.50;1.00;;;;;;6309192;22;20434;-45
2023/08/08 04:07:47;;;;;;;2.90;2.50;;;12.60;1.00;;;;;;6309259;22;20140;-45
2023/08/08 04:10:13;;;;;;;3.73;2.43;;;12.60;1.00;;;;;;6309031;22;20214;-45
2023/08/08 04:12:39;;;;;;;2.10;1.80;;;12.70;1.00;;;;;;6309558;22;20230;-44
2023/08/08 04:15:04;;;;;;;2.80;1.93;;;12.70;1.00;;;;;;6309425;22;20243;-45
2023/08/08 04:17:30;;;;;;;3.03;1.90;;;12.70;1.00;;;;;;6308765;22;20156;-45
2023/08/08 04:19:56;;;;;;;2.80;2.30;;;12.70;1.00;;;;;;6308169;22;20350;-44
2023/08/08 04:22:22;;;;;;;2.50;2.00;;;12.70;1.00;;;;;;6280333;22;20124;-45
2023/08/08 04:24:47;;;;;;;2.33;2.07;;;12.70;1.00;;;;;;6309914;22;20500;-45
2023/08/08 04:27:13;;;;;;;4.20;2.00;;;12.70;1.00;;;;;;6307131;22;20210;-45
2023/08/08 04:29:39;;;;;;;2.23;2.03;;;12.70;1.00;;;;;;6307864;22;20459;-45
2023/08/08 04:32:05;;;;;;;5.23;2.90;;;12.80;99.90;;;;;;6307668;22;20240;-45
2023/08/08 04:34:30;;;;;;;3.30;2.97;;;12.80;99.90;;;;;;6309495;22;20219;-45
2023/08/08 04:36:56;;;;;;;3.17;2.87;;;12.80;99.90;;;;;;6307822;22;20534;-45
2023/08/08 04:39:21;;;;;;;2.57;1.97;;;12.80;99.90;;;;;;6306200;22;20264;-45
2023/08/08 04:41:47;;;;;;;3.83;2.90;;;12.80;99.90;;;;;;6307200;22;20159;-45
2023/08/08 04:44:14;;;;;;;3.27;2.57;;;12.80;99.90;;;;;;6280054;22;20152;-45
2023/08/08 04:46:39;;;;;;;2.40;2.20;;;12.80;99.90;;;;;;6307071;22;20136;-45
2023/08/08 04:49:05;;;;;;;5.23;2.37;;;12.90;99.90;;;;;;6306038;22;20723;-45
2023/08/08 04:51:31;;;;;;;2.30;2.10;;;13.00;99.90;;;;;;6305449;22;20251;-45
2023/08/08 04:53:56;;;;;;;6.30;2.60;;;13.00;99.90;;;;;;6307390;22;20159;-46
2023/08/08 04:56:22;;;;;;;2.17;1.80;;;13.10;99.90;;;;;;6308107;22;20155;-45
2023/08/08 04:58:48;;;;;;;2.70;2.23;;;13.10;86.50;;;;;;6303097;22;20401;-45
2023/08/08 05:01:15;;;;;;;6.40;2.40;;;13.20;9.60;;;;;;6302904;22;20132;-45
2023/08/08 05:03:41;;;;;;;3.67;2.17;;;13.30;1.00;;;;;;6304320;22;20156;-45
2023/08/08 05:06:07;;;;;;;4.10;2.17;;;13.30;1.00;;;;;;6305658;22;20389;-45
2023/08/08 05:08:32;;;;;;;2.90;2.10;;;13.30;1.00;;;;;;6303668;22;20701;-45
2023/08/08 05:10:58;;;;;;;3.17;1.80;;;13.30;1.00;;;;;;6304575;22;20194;-45
2023/08/08 05:13:23;;;;;;;2.77;2.10;;;13.40;1.00;;;;;;6305047;22;20135;-45
2023/08/08 05:15:49;;;;;;;2.60;2.40;;;13.40;1.00;;;;;;6307273;22;20148;-46
2023/08/08 05:18:15;;;;;;;4.70;2.20;;;13.40;1.00;;;;;;6306498;22;20152;-45
2023/08/08 05:20:40;;;;;;;5.77;2.40;;;13.30;1.00;;;;;;6306214;22;20156;-46
2023/08/08 05:23:06;;;;;;;2.80;2.00;;;13.30;1.00;;;;;;6307184;22;20152;-46
2023/08/08 05:25:31;;;;;;;4.57;2.20;;;13.30;1.00;;;;;;6307549;22;20151;-45
2023/08/08 05:27:57;;;;;;;3.67;2.37;;;13.40;1.00;;;;;;6306906;22;20411;-45
2023/08/08 05:30:23;;;;;;;3.20;2.00;;;13.50;1.00;;;;;;6280188;22;20186;-45
2023/08/08 05:32:48;;;;;;;3.10;2.80;;;13.50;1.00;;;;;;6280729;22;20246;-45
2023/08/08 05:35:14;;;;;;;3.40;2.30;;;13.60;1.00;;;;;;6306126;22;20148;-45
2023/08/08 05:37:40;;;;;;;3.07;2.33;;;13.70;1.00;;;;;;6306268;22;20163;-44
2023/08/08 05:40:06;;;;;;;2.93;2.37;;;13.70;1.00;;;;;;6305077;22;20234;-44
2023/08/08 05:42:32;;;;;;;3.20;2.10;;;13.70;99.90;;;;;;6304297;22;20159;-46
2023/08/08 05:44:58;;;;;;;2.97;2.77;;;13.80;99.90;;;;;;6254070;22;20390;-47
2023/08/08 05:47:23;;;;;;;5.03;2.97;;;13.90;99.90;;;;;;6307365;22;20378;-47
2023/08/08 05:49:49;;;;;;;2.90;2.50;;;13.90;99.90;;;;;;6306342;22;20129;-45
2023/08/08 05:52:15;;;;;;;2.50;2.27;;;13.90;99.90;;;;;;6303112;22;20129;-45
2023/08/08 05:54:40;;;;;;;2.27;1.93;;;14.00;99.90;;;;;;6303893;22;20160;-45
2023/08/08 05:57:07;;;;;;;5.70;2.37;;;14.10;22.70;;;;;;6278220;22;20148;-45
2023/08/08 05:59:33;;;;;;;4.07;2.50;;;14.20;1.00;;;;;;6305127;22;20222;-45
2023/08/08 06:01:59;;;;;;;3.20;1.90;;;14.20;1.00;;;;;;6306533;22;20778;-45
2023/08/08 06:04:25;;;;;;;2.60;1.90;;;14.30;1.00;;;;;;6306182;22;20170;-45
2023/08/08 06:06:50;;;;;;;4.17;2.50;;;14.50;99.90;;;;;;6302831;22;20156;-45
2023/08/08 06:09:16;;;;;;;3.50;2.10;;;14.80;1.00;;;;;;6301845;22;20393;-45
2023/08/08 06:11:42;;;;;;;4.43;2.37;;;15.00;1.00;;;;;;6303006;22;20187;-45
2023/08/08 06:14:09;;;;;;;2.50;1.90;;;15.10;1.00;;;;;;6302718;22;20382;-45
2023/08/08 06:16:34;;;;;;;3.23;2.17;;;15.20;99.90;;;;;;6305119;22;20343;-45
2023/08/08 06:19:00;;;;;;;2.07;1.87;;;15.30;99.90;;;;;;6304401;22;20658;-45
2023/08/08 06:21:26;;;;;;;4.20;1.87;;;15.50;99.90;;;;;;6276485;22;20167;-44
2023/08/08 06:23:54;;;;;;;3.13;2.10;;;15.60;99.90;;;;;;6275020;22;20166;-45
2023/08/08 06:26:21;;;;;;;2.77;1.90;;;15.70;1.00;;;;;;6277249;22;20156;-45
2023/08/08 06:28:47;;;;;;;4.70;2.27;;;15.80;1.00;;;;;;6304673;22;20689;-45
2023/08/08 06:31:13;;;;;;;2.97;1.80;;;16.00;1.00;;;;;;6303390;22;20642;-45
2023/08/08 06:33:39;;;;;;;2.33;2.07;;;16.30;99.90;;;;;;6304058;22;20389;-45
2023/08/08 06:36:05;;;;;;;2.80;2.10;;;16.50;1.00;;;;;;6251178;22;20481;-45
2023/08/08 06:38:33;;;;;;;6.03;2.27;;;16.60;99.90;;;;;;6278816;22;20565;-45
2023/08/08 06:41:00;;;;;;;3.40;2.00;;;16.70;99.90;;;;;;6301913;22;20350;-45
2023/08/08 06:43:25;;;;;;;3.33;2.00;;;16.80;35.90;;;;;;6303874;22;20385;-45
2023/08/08 06:45:51;;;;;;;2.03;1.83;;;16.90;1.00;;;;;;6305159;22;20390;-44
2023/08/08 06:48:17;;;;;;;3.33;1.97;;;16.80;1.00;;;;;;6280696;22;20152;-44
2023/08/08 06:50:43;;;;;;;3.27;1.97;;;16.80;1.00;;;;;;6304940;22;20233;-45
2023/08/08 06:53:08;;;;;;;3.20;1.90;;;16.80;1.00;;;;;;6303864;22;20148;-44
2023/08/08 06:55:34;;;;;;;2.47;1.50;;;16.90;1.00;;;;;;6305081;22;20159;-45
2023/08/08 06:58:00;;;;;;;1.90;1.70;;;17.10;99.90;;;;;;6304795;22;20183;-44
2023/08/08 07:00:27;;;;;;;4.03;2.07;;;17.20;99.90;;;;;;6275241;22;20151;-44
2023/08/08 07:02:53;;;;;;;2.63;2.10;;;17.40;99.90;;;;;;6304481;22;20151;-45
2023/08/08 07:05:18;;;;;;;3.50;1.93;;;17.50;99.90;;;;;;6305675;22;20393;-45
2023/08/08 07:07:44;;;;;;;5.80;2.40;;;17.60;1.00;;;;;;6306010;22;20221;-45
2023/08/08 07:10:12;;;;;;;3.43;2.10;;;17.60;1.00;;;;;;6306660;22;20172;-43
2023/08/08 07:12:38;;;;;;;3.40;2.10;;;17.60;1.00;;;;;;6306437;22;20550;-45
2023/08/08 07:15:07;;;;;;;2.60;1.90;;;17.50;1.00;;;;;;6308027;22;20803;-45
2023/08/08 07:17:32;;;;;;;8.00;2.23;;;17.50;1.00;;;;;;6280739;22;20245;-45
2023/08/08 07:19:58;;;;;;;3.03;2.40;;;17.50;1.00;;;;;;6306419;22;20431;-45
2023/08/08 07:22:24;;;;;;;4.50;2.13;;;17.60;1.00;;;;;;6306877;22;20199;-45
2023/08/08 07:24:49;;;;;;;3.27;2.13;;;17.80;1.00;;;;;;6306297;22;20151;-45
2023/08/08 07:27:15;;;;;;;3.37;1.83;;;18.00;1.00;;;;;;6303311;22;20195;-45
2023/08/08 07:29:41;;;;;;;3.53;2.00;;;18.10;1.00;;;;;;6279107;22;20148;-45
2023/08/08 07:32:09;;;;;;;3.03;2.00;;;18.30;99.90;;;;;;6308442;22;20187;-45
2023/08/08 07:34:35;;;;;;;3.23;2.30;;;18.30;99.90;;;;;;6280284;22;20227;-45
2023/08/08 07:37:00;;;;;;;4.87;2.20;;;18.30;99.90;;;;;;6255460;22;20677;-45
2023/08/08 07:39:26;;;;;;;2.80;1.90;;;18.60;99.90;;;;;;6308127;22;20166;-45
2023/08/08 07:41:53;;;;;;;2.57;2.00;;;18.50;99.90;;;;;;6308333;22;20152;-45
2023/08/08 07:44:18;;;;;;;4.93;2.10;;;18.50;99.90;;;;;;6280159;22;20394;-45
2023/08/08 07:46:44;;;;;;;2.13;1.47;;;18.40;99.90;;;;;;6307315;22;20428;-45
2023/08/08 07:49:10;;;;;;;2.00;1.80;;;18.30;99.90;;;;;;6279531;22;20148;-45
2023/08/08 07:51:35;;;;;;;2.90;1.57;;;18.20;99.90;;;;;;6306932;22;20176;-45
2023/08/08 07:54:02;;;;;;;3.10;2.20;;;18.20;99.90;;;;;;6306581;22;20152;-45
2023/08/08 07:56:28;;;;;;;2.60;1.93;;;18.60;99.90;;;;;;6305818;22;20467;-45
2023/08/08 07:58:53;;;;;;;2.43;1.83;;;18.80;99.90;;;;;;6305010;22;20351;-45
2023/08/08 08:01:23;;;;;;;2.53;2.20;;;18.70;99.90;;;;;;6306250;22;20704;-45
2023/08/08 08:03:48;;;;;;;3.80;1.90;;;18.70;99.90;;;;;;6278452;22;20195;-46
2023/08/08 08:06:14;;;;;;;2.13;1.47;;;18.80;96.80;;;;;;6306680;22;20394;-46
2023/08/08 08:08:39;;;;;;;2.57;1.93;;;18.90;87.60;;;;;;6307681;22;20519;-45
2023/08/08 08:11:05;;;;;;;3.33;1.80;;;19.00;88.90;;;;;;6306892;22;20191;-44
2023/08/08 08:13:31;;;;;;;2.70;1.90;;;19.10;72.00;;;;;;6307109;22;20128;-45
2023/08/08 08:15:56;;;;;;;2.90;1.70;;;19.20;52.80;;;;;;6307792;22;20590;-45
2023/08/08 08:18:22;;;;;;;3.00;2.17;;;19.10;18.00;;;;;;6305995;22;20148;-45
2023/08/08 08:20:49;;;;;;;2.87;2.00;;;19.10;18.20;;;;;;6306458;22;20152;-45
2023/08/08 08:23:15;;;;;;;2.97;1.83;;;19.30;25.00;;;;;;6303808;22;20399;-45
2023/08/08 08:25:40;;;;;;;5.60;2.60;;;19.60;15.90;;;;;;6306437;22;20692;-44
2023/08/08 08:28:06;;;;;;;2.30;1.70;;;19.70;13.00;;;;;;6304723;22;20438;-44
2023/08/08 08:30:32;;;;;;;2.83;2.40;;;20.00;3.50;;;;;;6305924;22;20233;-45
2023/08/08 08:32:57;;;;;;;1.87;1.60;;;20.30;1.00;;;;;;6307731;22;20397;-45
2023/08/08 08:35:23;;;;;;;2.90;1.80;;;20.30;1.00;;;;;;6306728;22;20535;-45
2023/08/08 08:37:49;;;;;;;2.00;1.40;;;20.20;1.00;;;;;;6307842;22;20132;-45
2023/08/08 08:40:15;;;;;;;2.37;1.50;;;20.00;1.00;;;;;;6304813;22;20132;-45
2023/08/08 08:42:40;;;;;;;3.87;2.17;;;19.80;1.00;;;;;;6304700;22;20194;-45
2023/08/08 08:45:07;;;;;;;2.77;2.00;;;19.70;1.00;;;;;;6277234;22;20785;-45
2023/08/08 08:47:33;;;;;;;3.33;2.10;;;19.50;1.00;;;;;;6307246;22;20382;-45
2023/08/08 08:50:00;;;;;;;2.23;1.93;;;19.30;1.00;;;;;;6278801;22;20433;-45
2023/08/08 08:52:25;;;;;;;2.87;2.10;;;19.40;1.00;;;;;;6279132;22;20639;-44
2023/08/08 08:54:51;;;;;;;3.50;2.07;;;19.50;1.00;;;;;;6277822;22;20418;-45
2023/08/08 08:57:19;;;;;;;2.43;2.10;;;19.90;1.00;;;;;;6305535;22;20169;-45
2023/08/08 08:59:44;;;;;;;2.87;1.70;;;20.20;1.00;;;;;;6276759;22;20481;-45
2023/08/08 09:02:10;;;;;;;4.50;2.47;;;20.20;1.00;;;;;;6300366;22;20429;-44
2023/08/08 09:04:37;;;;;;;2.47;1.67;;;20.30;1.00;;;;;;6276913;22;20147;-44
2023/08/08 09:07:03;;;;;;;2.80;2.33;;;20.00;1.00;;;;;;6305325;22;20382;-44
2023/08/08 09:09:32;;;;;;;4.27;2.10;;;20.00;1.00;;;;;;6279590;22;20856;-45
2023/08/08 09:11:57;;;;;;;4.17;1.70;;;20.00;1.00;;;;;;6305531;22;20875;-44
2023/08/08 09:14:26;;;;;;;2.30;1.80;;;20.20;1.00;;;;;;6302738;22;20379;-45
2023/08/08 09:16:56;;;;;;;2.90;2.43;;;20.00;1.00;;;;;;6304399;22;20124;-45
2023/08/08 09:19:22;;;;;;;4.93;1.63;;;20.30;1.00;;;;;;6306167;22;20343;-46
2023/08/08 09:21:49;;;;;;;2.40;2.10;;;20.20;1.00;;;;;;6306596;22;20393;-46
2023/08/08 09:24:15;;;;;;;2.60;1.97;;;20.40;1.00;;;;;;6305736;22;20768;-46
2023/08/08 09:26:42;;;;;;;2.63;1.63;;;20.60;1.00;;;;;;6303857;22;20428;-45
2023/08/08 09:29:08;;;;;;;2.53;1.90;;;20.80;1.00;;;;;;6303979;22;20463;-45
2023/08/08 09:31:36;;;;;;;2.03;1.73;;;21.00;1.00;;;;;;6304787;22;20405;-46
2023/08/08 09:34:03;;;;;;;2.83;1.80;;;20.70;1.00;;;;;;6303878;22;20386;-45
2023/08/08 09:36:29;;;;;;;3.37;2.10;;;20.80;1.00;;;;;;6302952;22;20441;-43
2023/08/08 09:38:56;;;;;;;2.20;1.80;;;20.80;1.00;;;;;;6301933;22;20374;-46
2023/08/08 09:41:22;;;;;;;2.73;2.03;;;20.90;1.00;;;;;;6300067;22;20224;-46
2023/08/08 09:43:49;;;;;;;3.03;2.13;;;20.80;1.00;;;;;;6300253;22;20354;-44
2023/08/08 09:46:18;;;;;;;3.27;1.57;;;20.70;1.00;;;;;;6305402;22;20367;-44
2023/08/08 09:48:44;;;;;;;4.73;2.10;;;21.00;1.00;;;;;;6305471;22;20374;-44
2023/08/08 09:51:09;;;;;;;2.50;1.93;;;21.20;1.00;;;;;;6305630;22;20422;-44
2023/08/08 09:53:36;;;;;;;2.07;1.77;;;22.10;1.00;;;;;;6304195;22;20159;-44
2023/08/08 09:56:05;;;;;;;3.97;2.00;;;22.40;1.00;;;;;;6302123;22;20484;-42
2023/08/08 09:58:31;;;;;;;2.77;1.60;;;22.30;1.00;;;;;;6302726;22;20420;-45
2023/08/08 10:00:56;;;;;;;3.23;1.90;;;22.80;1.00;;;;;;6302508;22;20378;-44
2023/08/08 10:03:26;;;;;;;2.40;2.13;;;23.20;1.00;;;;;;6303129;22;20482;-45
2023/08/08 10:05:52;;;;;;;1.87;1.60;;;23.40;1.00;;;;;;6303194;22;20371;-45
2023/08/08 10:08:18;;;;;;;2.53;2.10;;;23.60;1.00;;;;;;6302498;22;20382;-44
2023/08/08 10:10:46;;;;;;;2.80;2.13;;;23.10;1.00;;;;;;6300846;22;20516;-44
2023/08/08 10:13:22;;;;;;;2.67;1.90;;;23.20;1.00;;;;;;6303628;22;20362;-45
2023/08/08 10:15:47;;;;;;;3.53;2.10;;;23.20;1.00;;;;;;6303428;22;20374;-45
2023/08/08 10:18:14;;;;;;;2.20;1.60;;;23.80;1.00;;;;;;6304233;22;20381;-44
2023/08/08 10:20:44;;;;;;;1.90;1.53;;;24.30;1.00;;;;;;6305667;22;20148;-44
2023/08/08 10:23:10;;;;;;;3.13;1.83;;;24.90;1.00;;;;;;6306170;22;20405;-44
2023/08/08 10:25:36;;;;;;;2.00;1.37;;;24.70;1.00;;;;;;6306205;22;20416;-45
2023/08/08 10:28:10;;;;;;;1.90;1.60;;;24.50;1.00;;;;;;6275418;22;20519;-44
2023/08/08 10:30:53;;;;;;;2.80;1.90;;;24.70;1.00;;;;;;6276286;22;20440;-45
2023/08/08 10:33:21;;;;;;;3.77;1.93;;;24.60;1.00;;;;;;6305765;22;20478;-45
2023/08/08 10:35:57;;;;;;;2.80;1.67;;;24.10;1.00;;;;;;6278108;22;20397;-45
2023/08/08 10:38:24;;;;;;;2.87;1.83;;;23.90;1.00;;;;;;6278710;22;20358;-45
2023/08/08 10:40:58;;;;;;;2.67;1.97;;;23.50;1.00;;;;;;6303577;22;20661;-45
2023/08/08 10:43:28;;;;;;;3.13;1.77;;;23.40;1.00;;;;;;6303936;22;20378;-45
2023/08/08 10:45:59;;;;;;;1.80;1.30;;;23.80;1.00;;;;;;6302427;22;20435;-45
2023/08/08 10:48:26;;;;;;;2.37;1.90;;;24.10;1.00;;;;;;6303701;22;20604;-45
2023/08/08 10:50:56;;;;;;;2.37;1.90;;;24.20;1.00;;;;;;6302995;22;20397;-45
2023/08/08 10:53:30;;;;;;;6.43;2.10;;;24.10;1.00;;;;;;6276045;22;20354;-45
2023/08/08 10:56:02;;;;;;;2.70;1.60;;;24.70;1.00;;;;;;6301942;22;20855;-45
2023/08/08 10:58:39;;;;;;;4.00;1.63;;;25.30;1.00;;;;;;6304358;22;20391;-45
2023/08/08 11:01:07;;;;;;;1.73;1.23;;;25.90;1.00;;;;;;6277302;22;20374;-45
2023/08/08 11:03:38;;;;;;;1.80;1.50;;;27.20;1.00;;;;;;6306140;22;20389;-45
2023/08/08 11:06:04;;;;;;;2.30;1.60;;;27.50;1.00;;;;;;6305162;22;20473;-45
2023/08/08 11:08:32;;;;;;;2.90;1.80;;;28.00;1.00;;;;;;6279229;22;20358;-45
2023/08/08 11:10:57;;;;;;;2.53;1.97;;;28.20;1.00;;;;;;6306007;22;20493;-45
2023/08/08 11:13:23;;;;;;;2.30;1.93;;;27.50;1.00;;;;;;6304764;22;20393;-44
2023/08/08 11:15:49;;;;;;;2.23;1.93;;;26.50;1.00;;;;;;6303854;22;20599;-45
2023/08/08 11:18:15;;;;;;;2.33;1.80;;;27.00;1.00;;;;;;6300517;22;20419;-45
2023/08/08 11:20:40;;;;;;;2.33;1.50;;;27.40;1.00;;;;;;6274218;22;20156;-45
2023/08/08 11:23:10;;;;;;;2.53;1.80;;;27.80;1.00;;;;;;6301590;22;20170;-45
2023/08/08 11:25:35;;;;;;;2.00;1.57;;;28.20;1.00;;;;;;6301981;22;20168;-45
2023/08/08 11:28:04;;;;;;;3.37;2.10;;;27.60;1.00;;;;;;6301893;22;20852;-45
2023/08/08 11:30:32;;;;;;;3.97;1.90;;;26.80;1.00;;;;;;6275993;22;20203;-45
2023/08/08 11:32:59;;;;;;;2.27;1.80;;;26.90;1.00;;;;;;6274482;22;20366;-46
2023/08/08 11:35:25;;;;;;;2.80;1.83;;;28.10;1.00;;;;;;6275147;22;20358;-45
2023/08/08 11:37:52;;;;;;;2.87;1.67;;;28.30;1.00;;;;;;6302080;22;20396;-47
2023/08/08 11:40:18;;;;;;;2.57;1.80;;;28.20;1.00;;;;;;6275851;22;20821;-46
2023/08/08 11:42:47;;;;;;;2.23;1.93;;;28.20;1.00;;;;;;6304193;22;20465;-44
2023/08/08 11:45:13;;;;;;;4.53;2.33;;;27.20;1.00;;;;;;6276692;22;20148;-44
2023/08/08 11:47:41;;;;;;;2.67;2.20;;;26.40;1.00;;;;;;6302921;22;20346;-45
2023/08/08 11:50:09;;;;;;;2.97;1.93;;;25.50;1.00;;;;;;6276175;22;20194;-45
2023/08/08 11:52:42;;;;;;;3.83;1.70;;;24.90;1.00;;;;;;6300897;22;20366;-45
2023/08/08 11:55:11;;;;;;;2.77;1.67;;;24.50;1.00;;;;;;6304947;22;20405;-45
2023/08/08 11:57:38;;;;;;;2.77;1.87;;;25.50;1.00;;;;;;6302578;22;20631;-45
2023/08/08 12:00:07;;;;;;;2.60;1.93;;;26.70;1.00;;;;;;6303345;22;20896;-45
2023/08/08 12:02:33;;;;;;;3.93;2.30;;;27.10;1.00;;;;;;6303123;22;20778;-45
2023/08/08 12:05:05;;;;;;;1.70;1.33;;;27.20;1.00;;;;;;6304902;22;20370;-45
2023/08/08 12:07:35;;;;;;;1.57;1.47;;;27.80;1.00;;;;;;6250468;22;20428;-46
2023/08/08 12:10:03;;;;;;;2.27;1.70;;;28.20;1.00;;;;;;6303704;22;20469;-45
2023/08/08 12:12:35;;;;;;;1.80;1.57;;;28.20;1.00;;;;;;6306091;22;20445;-45
2023/08/08 12:15:05;;;;;;;2.10;1.87;;;28.40;1.00;;;;;;6306913;22;20780;-46
2023/08/08 12:17:31;;;;;;;2.67;1.77;;;29.50;1.00;;;;;;6306489;22;20355;-45
2023/08/08 12:20:00;;;;;;;2.30;1.70;;;29.40;1.00;;;;;;6308286;22;20384;-45
2023/08/08 12:22:26;;;;;;;2.87;1.73;;;28.70;1.00;;;;;;6275274;22;20252;-45
2023/08/08 12:24:51;;;;;;;2.90;2.03;;;27.70;1.00;;;;;;6304362;22;20381;-44
2023/08/08 12:27:17;;;;;;;2.13;1.77;;;27.20;1.00;;;;;;6305263;22;20658;-45
2023/08/08 12:29:44;;;;;;;2.67;2.20;;;27.10;1.00;;;;;;6304550;22;20128;-45
2023/08/08 12:32:09;;;;;;;3.30;1.90;;;27.60;1.00;;;;;;6276437;22;20164;-45
2023/08/08 12:34:36;;;;;;;3.70;2.40;;;28.20;1.00;;;;;;6274642;22;20382;-46
2023/08/08 12:37:02;;;;;;;2.73;2.07;;;28.80;1.00;;;;;;6303964;22;20148;-46
2023/08/08 12:39:29;;;;;;;3.57;2.00;;;27.90;1.00;;;;;;6276065;22;20487;-46
2023/08/08 12:41:54;;;;;;;2.73;2.00;;;27.50;1.00;;;;;;6302012;22;20553;-46
2023/08/08 12:44:20;;;;;;;3.20;1.87;;;27.70;1.00;;;;;;6303865;22;20416;-46
2023/08/08 12:46:46;;;;;;;2.20;1.80;;;28.10;1.00;;;;;;6304197;22;20173;-46
2023/08/08 12:49:11;;;;;;;2.30;1.90;;;28.30;1.00;;;;;;6305777;22;20169;-45
2023/08/08 12:51:37;;;;;;;2.90;1.93;;;28.20;1.00;;;;;;6304659;22;20516;-45